Aviation Digital Data Service (ADDS)

Output produced by METARs form (2052 UTC 29 May 2017)
found at http://www.aviationweather.gov/adds/metars/
 
WBSB 292030Z 22007KT 9999 FEW005 SCT014 BKN140 26/25 Q1010 NOSIG
TAF WBSB 291640Z 2918/3100 20003KT 9999 FEW014 FEW015CB 
     TEMPO 2921/2923 7000 SHRA 
     BECMG 3003/3005 30010KT SCT016 FEW017CB